sensor_id;sensor_type;location;lat;lon;timestamp;P1;durP1;ratioP1;P2;durP2;ratioP2
37971;SDS011;23794;48.234;8.344;2022-12-07T00:01:03;14.77;;;9.95;;
37971;SDS011;23794;48.234;8.344;2022-12-07T00:03:31;11.55;;;7.93;;
37971;SDS011;23794;48.234;8.344;2022-12-07T00:05:58;11.32;;;8.48;;
37971;SDS011;23794;48.234;8.344;2022-12-07T00:08:26;11.50;;;7.65;;
37971;SDS011;23794;48.234;8.344;2022-12-07T00:10:53;13.20;;;8.82;;
37971;SDS011;23794;48.234;8.344;2022-12-07T00:13:20;13.27;;;8.85;;
37971;SDS011;23794;48.234;8.344;2022-12-07T00:15:46;13.75;;;9.27;;
37971;SDS011;23794;48.234;8.344;2022-12-07T00:18:13;13.30;;;9.15;;
37971;SDS011;23794;48.234;8.344;2022-12-07T00:20:39;12.15;;;8.38;;
37971;SDS011;23794;48.234;8.344;2022-12-07T00:23:06;12.82;;;8.30;;
37971;SDS011;23794;48.234;8.344;2022-12-07T00:25:32;14.30;;;9.00;;
37971;SDS011;23794;48.234;8.344;2022-12-07T00:27:59;15.15;;;9.40;;
37971;SDS011;23794;48.234;8.344;2022-12-07T00:30:25;16.90;;;9.63;;
37971;SDS011;23794;48.234;8.344;2022-12-07T00:32:52;14.68;;;9.07;;
37971;SDS011;23794;48.234;8.344;2022-12-07T00:35:19;15.70;;;9.35;;
37971;SDS011;23794;48.234;8.344;2022-12-07T00:37:45;16.27;;;9.02;;
37971;SDS011;23794;48.234;8.344;2022-12-07T00:40:12;15.55;;;9.60;;
37971;SDS011;23794;48.234;8.344;2022-12-07T00:42:38;14.13;;;9.38;;
37971;SDS011;23794;48.234;8.344;2022-12-07T00:45:05;17.40;;;8.85;;
37971;SDS011;23794;48.234;8.344;2022-12-07T00:47:32;20.83;;;9.90;;
37971;SDS011;23794;48.234;8.344;2022-12-07T00:49:59;15.60;;;9.15;;
37971;SDS011;23794;48.234;8.344;2022-12-07T00:52:27;15.93;;;9.63;;
37971;SDS011;23794;48.234;8.344;2022-12-07T00:54:53;13.10;;;8.55;;
37971;SDS011;23794;48.234;8.344;2022-12-07T00:57:20;14.25;;;8.90;;
37971;SDS011;23794;48.234;8.344;2022-12-07T00:59:46;16.17;;;8.75;;
37971;SDS011;23794;48.234;8.344;2022-12-07T01:02:14;14.38;;;8.50;;
37971;SDS011;23794;48.234;8.344;2022-12-07T01:04:40;18.08;;;10.48;;
37971;SDS011;23794;48.234;8.344;2022-12-07T01:07:07;16.63;;;10.10;;
37971;SDS011;23794;48.234;8.344;2022-12-07T01:09:33;16.20;;;9.27;;
37971;SDS011;23794;48.234;8.344;2022-12-07T01:12:00;14.82;;;8.43;;
37971;SDS011;23794;48.234;8.344;2022-12-07T01:14:29;16.20;;;8.57;;
37971;SDS011;23794;48.234;8.344;2022-12-07T01:16:56;16.67;;;8.90;;
37971;SDS011;23794;48.234;8.344;2022-12-07T01:19:22;20.90;;;9.95;;
37971;SDS011;23794;48.234;8.344;2022-12-07T01:21:49;23.23;;;10.43;;
37971;SDS011;23794;48.234;8.344;2022-12-07T01:24:15;15.32;;;10.02;;
37971;SDS011;23794;48.234;8.344;2022-12-07T01:26:42;21.60;;;11.55;;
37971;SDS011;23794;48.234;8.344;2022-12-07T01:29:09;21.77;;;10.60;;
37971;SDS011;23794;48.234;8.344;2022-12-07T01:31:35;24.55;;;12.02;;
37971;SDS011;23794;48.234;8.344;2022-12-07T01:34:04;18.80;;;11.05;;
37971;SDS011;23794;48.234;8.344;2022-12-07T01:36:32;21.45;;;11.65;;
37971;SDS011;23794;48.234;8.344;2022-12-07T01:39:02;27.27;;;12.75;;
37971;SDS011;23794;48.234;8.344;2022-12-07T01:41:33;18.52;;;9.65;;
37971;SDS011;23794;48.234;8.344;2022-12-07T01:44:13;14.48;;;9.07;;
37971;SDS011;23794;48.234;8.344;2022-12-07T01:46:58;16.10;;;9.50;;
37971;SDS011;23794;48.234;8.344;2022-12-07T01:49:45;14.02;;;9.23;;
37971;SDS011;23794;48.234;8.344;2022-12-07T01:52:18;15.98;;;9.43;;
37971;SDS011;23794;48.234;8.344;2022-12-07T01:54:49;16.13;;;9.02;;
37971;SDS011;23794;48.234;8.344;2022-12-07T01:57:20;14.98;;;9.75;;
37971;SDS011;23794;48.234;8.344;2022-12-07T01:59:48;16.83;;;9.75;;
37971;SDS011;23794;48.234;8.344;2022-12-07T02:02:25;14.73;;;8.68;;
37971;SDS011;23794;48.234;8.344;2022-12-07T02:04:56;20.50;;;11.55;;
37971;SDS011;23794;48.234;8.344;2022-12-07T02:07:25;16.27;;;9.77;;
37971;SDS011;23794;48.234;8.344;2022-12-07T02:09:53;15.65;;;9.32;;
37971;SDS011;23794;48.234;8.344;2022-12-07T02:15:15;17.55;;;9.27;;
37971;SDS011;23794;48.234;8.344;2022-12-07T02:17:46;13.77;;;8.57;;
37971;SDS011;23794;48.234;8.344;2022-12-07T02:20:28;13.73;;;9.15;;
37971;SDS011;23794;48.234;8.344;2022-12-07T02:23:00;13.88;;;8.68;;
37971;SDS011;23794;48.234;8.344;2022-12-07T02:25:39;15.43;;;9.30;;
37971;SDS011;23794;48.234;8.344;2022-12-07T02:29:16;13.53;;;7.90;;
37971;SDS011;23794;48.234;8.344;2022-12-07T02:31:37;15.30;;;9.20;;
37971;SDS011;23794;48.234;8.344;2022-12-07T02:34:16;13.43;;;8.55;;
37971;SDS011;23794;48.234;8.344;2022-12-07T02:36:51;13.93;;;7.63;;
37971;SDS011;23794;48.234;8.344;2022-12-07T02:39:32;11.23;;;7.53;;
37971;SDS011;23794;48.234;8.344;2022-12-07T02:42:12;15.27;;;9.40;;
37971;SDS011;23794;48.234;8.344;2022-12-07T02:44:44;11.73;;;7.75;;
37971;SDS011;23794;48.234;8.344;2022-12-07T02:47:13;9.75;;;6.80;;
37971;SDS011;23794;48.234;8.344;2022-12-07T02:49:43;11.52;;;6.93;;
37971;SDS011;23794;48.234;8.344;2022-12-07T02:52:09;11.43;;;6.32;;
37971;SDS011;23794;48.234;8.344;2022-12-07T02:54:36;10.95;;;6.78;;
37971;SDS011;23794;48.234;8.344;2022-12-07T02:57:06;9.05;;;6.28;;
37971;SDS011;23794;48.234;8.344;2022-12-07T03:05:25;7.95;;;5.03;;
37971;SDS011;23794;48.234;8.344;2022-12-07T03:13:42;7.00;;;4.55;;
37971;SDS011;23794;48.234;8.344;2022-12-07T03:16:24;8.35;;;4.63;;
37971;SDS011;23794;48.234;8.344;2022-12-07T03:18:55;7.63;;;4.45;;
37971;SDS011;23794;48.234;8.344;2022-12-07T03:21:26;9.35;;;5.57;;
37971;SDS011;23794;48.234;8.344;2022-12-07T03:23:58;8.07;;;5.30;;
37971;SDS011;23794;48.234;8.344;2022-12-07T03:26:32;6.28;;;4.00;;
37971;SDS011;23794;48.234;8.344;2022-12-07T03:29:05;6.40;;;4.70;;
37971;SDS011;23794;48.234;8.344;2022-12-07T03:31:37;8.23;;;5.30;;
37971;SDS011;23794;48.234;8.344;2022-12-07T03:34:12;9.02;;;4.45;;
37971;SDS011;23794;48.234;8.344;2022-12-07T03:36:50;6.15;;;4.07;;
37971;SDS011;23794;48.234;8.344;2022-12-07T03:41:59;4.88;;;3.80;;
37971;SDS011;23794;48.234;8.344;2022-12-07T03:44:28;8.10;;;4.72;;
37971;SDS011;23794;48.234;8.344;2022-12-07T03:49:40;8.68;;;5.75;;
37971;SDS011;23794;48.234;8.344;2022-12-07T03:58:12;8.63;;;4.68;;
37971;SDS011;23794;48.234;8.344;2022-12-07T04:00:45;12.57;;;6.55;;
37971;SDS011;23794;48.234;8.344;2022-12-07T04:03:12;11.98;;;5.82;;
37971;SDS011;23794;48.234;8.344;2022-12-07T04:05:39;13.48;;;8.70;;
37971;SDS011;23794;48.234;8.344;2022-12-07T04:08:06;8.00;;;5.13;;
37971;SDS011;23794;48.234;8.344;2022-12-07T04:10:33;10.18;;;6.63;;
37971;SDS011;23794;48.234;8.344;2022-12-07T04:13:00;8.55;;;4.97;;
37971;SDS011;23794;48.234;8.344;2022-12-07T04:15:27;7.95;;;5.90;;
37971;SDS011;23794;48.234;8.344;2022-12-07T04:17:54;9.57;;;5.68;;
37971;SDS011;23794;48.234;8.344;2022-12-07T04:20:21;7.95;;;4.68;;
37971;SDS011;23794;48.234;8.344;2022-12-07T04:22:48;8.32;;;5.63;;
37971;SDS011;23794;48.234;8.344;2022-12-07T04:25:14;9.52;;;5.85;;
37971;SDS011;23794;48.234;8.344;2022-12-07T04:27:41;12.18;;;6.63;;
37971;SDS011;23794;48.234;8.344;2022-12-07T04:30:08;9.82;;;6.25;;
37971;SDS011;23794;48.234;8.344;2022-12-07T04:32:35;8.95;;;5.85;;
37971;SDS011;23794;48.234;8.344;2022-12-07T04:35:02;8.75;;;5.93;;
37971;SDS011;23794;48.234;8.344;2022-12-07T04:37:29;8.85;;;6.10;;
37971;SDS011;23794;48.234;8.344;2022-12-07T04:39:56;9.95;;;6.80;;
37971;SDS011;23794;48.234;8.344;2022-12-07T04:42:23;9.48;;;6.35;;
37971;SDS011;23794;48.234;8.344;2022-12-07T04:44:49;12.25;;;7.32;;
37971;SDS011;23794;48.234;8.344;2022-12-07T04:47:17;11.07;;;6.72;;
37971;SDS011;23794;48.234;8.344;2022-12-07T04:49:44;8.43;;;5.80;;
37971;SDS011;23794;48.234;8.344;2022-12-07T04:52:10;8.10;;;5.90;;
37971;SDS011;23794;48.234;8.344;2022-12-07T04:54:37;8.63;;;6.22;;
37971;SDS011;23794;48.234;8.344;2022-12-07T04:57:03;7.47;;;5.28;;
37971;SDS011;23794;48.234;8.344;2022-12-07T04:59:30;7.18;;;5.28;;
37971;SDS011;23794;48.234;8.344;2022-12-07T05:01:57;7.43;;;5.30;;
37971;SDS011;23794;48.234;8.344;2022-12-07T05:04:23;7.32;;;5.00;;
37971;SDS011;23794;48.234;8.344;2022-12-07T05:06:50;6.63;;;4.93;;
37971;SDS011;23794;48.234;8.344;2022-12-07T05:09:17;8.65;;;4.97;;
37971;SDS011;23794;48.234;8.344;2022-12-07T05:11:43;6.93;;;4.63;;
37971;SDS011;23794;48.234;8.344;2022-12-07T05:14:17;8.45;;;5.22;;
37971;SDS011;23794;48.234;8.344;2022-12-07T05:16:47;7.43;;;5.00;;
37971;SDS011;23794;48.234;8.344;2022-12-07T05:19:16;9.95;;;5.93;;
37971;SDS011;23794;48.234;8.344;2022-12-07T05:21:44;10.45;;;6.22;;
37971;SDS011;23794;48.234;8.344;2022-12-07T05:24:11;11.60;;;7.40;;
37971;SDS011;23794;48.234;8.344;2022-12-07T05:26:39;11.27;;;7.18;;
37971;SDS011;23794;48.234;8.344;2022-12-07T05:29:07;10.93;;;7.53;;
37971;SDS011;23794;48.234;8.344;2022-12-07T05:31:36;12.60;;;8.23;;
37971;SDS011;23794;48.234;8.344;2022-12-07T05:34:03;10.80;;;7.10;;
37971;SDS011;23794;48.234;8.344;2022-12-07T05:36:29;11.50;;;7.78;;
37971;SDS011;23794;48.234;8.344;2022-12-07T05:38:58;11.13;;;6.65;;
37971;SDS011;23794;48.234;8.344;2022-12-07T05:41:25;11.07;;;7.85;;
37971;SDS011;23794;48.234;8.344;2022-12-07T05:44:10;12.52;;;7.97;;
37971;SDS011;23794;48.234;8.344;2022-12-07T05:46:37;11.52;;;7.65;;
37971;SDS011;23794;48.234;8.344;2022-12-07T05:49:04;8.80;;;6.55;;
37971;SDS011;23794;48.234;8.344;2022-12-07T05:51:30;8.10;;;5.28;;
37971;SDS011;23794;48.234;8.344;2022-12-07T05:53:57;10.88;;;6.75;;
37971;SDS011;23794;48.234;8.344;2022-12-07T05:56:24;7.07;;;5.60;;
37971;SDS011;23794;48.234;8.344;2022-12-07T05:58:51;8.02;;;5.10;;
37971;SDS011;23794;48.234;8.344;2022-12-07T06:01:36;12.20;;;7.43;;
37971;SDS011;23794;48.234;8.344;2022-12-07T06:04:02;12.07;;;7.22;;
37971;SDS011;23794;48.234;8.344;2022-12-07T06:06:30;10.88;;;7.22;;
37971;SDS011;23794;48.234;8.344;2022-12-07T06:08:57;11.35;;;6.88;;
37971;SDS011;23794;48.234;8.344;2022-12-07T06:11:24;11.15;;;6.93;;
37971;SDS011;23794;48.234;8.344;2022-12-07T06:14:09;10.07;;;5.93;;
37971;SDS011;23794;48.234;8.344;2022-12-07T06:16:36;8.48;;;5.40;;
37971;SDS011;23794;48.234;8.344;2022-12-07T06:19:02;10.00;;;6.85;;
37971;SDS011;23794;48.234;8.344;2022-12-07T06:21:29;10.75;;;6.63;;
37971;SDS011;23794;48.234;8.344;2022-12-07T06:23:56;12.90;;;7.50;;
37971;SDS011;23794;48.234;8.344;2022-12-07T06:26:22;10.38;;;6.78;;
37971;SDS011;23794;48.234;8.344;2022-12-07T06:28:49;12.68;;;7.32;;
37971;SDS011;23794;48.234;8.344;2022-12-07T06:31:16;8.93;;;6.07;;
37971;SDS011;23794;48.234;8.344;2022-12-07T06:33:43;9.85;;;6.78;;
37971;SDS011;23794;48.234;8.344;2022-12-07T06:36:09;11.15;;;6.80;;
37971;SDS011;23794;48.234;8.344;2022-12-07T06:38:36;12.80;;;6.53;;
37971;SDS011;23794;48.234;8.344;2022-12-07T06:41:04;17.35;;;10.10;;
37971;SDS011;23794;48.234;8.344;2022-12-07T06:43:31;15.35;;;8.93;;
37971;SDS011;23794;48.234;8.344;2022-12-07T06:45:57;12.05;;;7.82;;
37971;SDS011;23794;48.234;8.344;2022-12-07T06:48:24;11.15;;;7.22;;
37971;SDS011;23794;48.234;8.344;2022-12-07T06:50:51;12.80;;;6.85;;
37971;SDS011;23794;48.234;8.344;2022-12-07T06:53:20;13.00;;;7.78;;
37971;SDS011;23794;48.234;8.344;2022-12-07T06:55:48;13.60;;;6.85;;
37971;SDS011;23794;48.234;8.344;2022-12-07T06:58:14;10.48;;;6.43;;
37971;SDS011;23794;48.234;8.344;2022-12-07T07:00:41;10.48;;;6.78;;
37971;SDS011;23794;48.234;8.344;2022-12-07T07:03:08;11.63;;;7.53;;
37971;SDS011;23794;48.234;8.344;2022-12-07T07:05:35;9.20;;;6.00;;
37971;SDS011;23794;48.234;8.344;2022-12-07T07:08:02;13.05;;;7.13;;
37971;SDS011;23794;48.234;8.344;2022-12-07T07:10:49;7.65;;;5.00;;
37971;SDS011;23794;48.234;8.344;2022-12-07T07:13:17;11.02;;;6.35;;
37971;SDS011;23794;48.234;8.344;2022-12-07T07:15:43;10.40;;;6.10;;
37971;SDS011;23794;48.234;8.344;2022-12-07T07:18:10;10.63;;;6.50;;
37971;SDS011;23794;48.234;8.344;2022-12-07T07:20:37;11.02;;;6.80;;
37971;SDS011;23794;48.234;8.344;2022-12-07T07:23:04;11.48;;;6.72;;
37971;SDS011;23794;48.234;8.344;2022-12-07T07:25:31;19.10;;;10.75;;
37971;SDS011;23794;48.234;8.344;2022-12-07T07:27:59;15.95;;;9.55;;
37971;SDS011;23794;48.234;8.344;2022-12-07T07:30:26;15.43;;;9.02;;
37971;SDS011;23794;48.234;8.344;2022-12-07T07:33:00;14.88;;;9.32;;
37971;SDS011;23794;48.234;8.344;2022-12-07T07:35:28;14.27;;;8.88;;
37971;SDS011;23794;48.234;8.344;2022-12-07T07:37:56;15.52;;;8.32;;
37971;SDS011;23794;48.234;8.344;2022-12-07T07:40:23;16.58;;;9.45;;
37971;SDS011;23794;48.234;8.344;2022-12-07T07:42:51;13.68;;;9.13;;
37971;SDS011;23794;48.234;8.344;2022-12-07T07:45:20;16.05;;;10.02;;
37971;SDS011;23794;48.234;8.344;2022-12-07T07:47:49;12.70;;;8.43;;
37971;SDS011;23794;48.234;8.344;2022-12-07T07:50:16;11.00;;;7.07;;
37971;SDS011;23794;48.234;8.344;2022-12-07T07:52:43;14.57;;;9.13;;
37971;SDS011;23794;48.234;8.344;2022-12-07T07:55:11;15.80;;;9.45;;
37971;SDS011;23794;48.234;8.344;2022-12-07T07:57:38;13.45;;;8.80;;
37971;SDS011;23794;48.234;8.344;2022-12-07T08:00:07;20.50;;;12.57;;
37971;SDS011;23794;48.234;8.344;2022-12-07T08:02:39;17.20;;;11.10;;
37971;SDS011;23794;48.234;8.344;2022-12-07T08:05:07;18.25;;;12.18;;
37971;SDS011;23794;48.234;8.344;2022-12-07T08:07:34;16.40;;;10.10;;
37971;SDS011;23794;48.234;8.344;2022-12-07T08:10:01;16.52;;;10.93;;
37971;SDS011;23794;48.234;8.344;2022-12-07T08:12:28;14.85;;;9.68;;
37971;SDS011;23794;48.234;8.344;2022-12-07T08:14:55;14.45;;;9.10;;
37971;SDS011;23794;48.234;8.344;2022-12-07T08:17:22;16.38;;;10.70;;
37971;SDS011;23794;48.234;8.344;2022-12-07T08:19:48;17.20;;;10.57;;
37971;SDS011;23794;48.234;8.344;2022-12-07T08:22:15;18.23;;;10.98;;
37971;SDS011;23794;48.234;8.344;2022-12-07T08:24:42;19.48;;;10.80;;
37971;SDS011;23794;48.234;8.344;2022-12-07T08:27:09;19.90;;;11.00;;
37971;SDS011;23794;48.234;8.344;2022-12-07T08:29:36;16.35;;;9.73;;
37971;SDS011;23794;48.234;8.344;2022-12-07T08:32:02;15.00;;;10.45;;
37971;SDS011;23794;48.234;8.344;2022-12-07T08:34:35;13.68;;;8.10;;
37971;SDS011;23794;48.234;8.344;2022-12-07T08:37:02;15.05;;;9.55;;
37971;SDS011;23794;48.234;8.344;2022-12-07T08:39:28;12.57;;;8.40;;
37971;SDS011;23794;48.234;8.344;2022-12-07T08:41:57;14.80;;;9.32;;
37971;SDS011;23794;48.234;8.344;2022-12-07T08:44:24;13.38;;;8.38;;
37971;SDS011;23794;48.234;8.344;2022-12-07T08:46:56;12.95;;;8.38;;
37971;SDS011;23794;48.234;8.344;2022-12-07T08:49:38;10.80;;;7.18;;
37971;SDS011;23794;48.234;8.344;2022-12-07T08:52:07;11.70;;;7.75;;
37971;SDS011;23794;48.234;8.344;2022-12-07T08:54:34;10.27;;;7.15;;
37971;SDS011;23794;48.234;8.344;2022-12-07T08:57:04;11.05;;;6.95;;
37971;SDS011;23794;48.234;8.344;2022-12-07T08:59:31;10.20;;;7.35;;
37971;SDS011;23794;48.234;8.344;2022-12-07T09:02:01;10.25;;;6.80;;
37971;SDS011;23794;48.234;8.344;2022-12-07T09:04:28;8.50;;;5.85;;
37971;SDS011;23794;48.234;8.344;2022-12-07T09:06:54;9.25;;;6.88;;
37971;SDS011;23794;48.234;8.344;2022-12-07T09:09:22;11.52;;;7.05;;
37971;SDS011;23794;48.234;8.344;2022-12-07T09:11:48;9.55;;;5.93;;
37971;SDS011;23794;48.234;8.344;2022-12-07T09:14:15;9.13;;;6.45;;
37971;SDS011;23794;48.234;8.344;2022-12-07T09:16:42;9.55;;;5.57;;
37971;SDS011;23794;48.234;8.344;2022-12-07T09:19:08;10.50;;;6.30;;
37971;SDS011;23794;48.234;8.344;2022-12-07T09:21:35;7.80;;;5.80;;
37971;SDS011;23794;48.234;8.344;2022-12-07T09:24:02;13.13;;;7.00;;
37971;SDS011;23794;48.234;8.344;2022-12-07T09:26:28;10.63;;;6.57;;
37971;SDS011;23794;48.234;8.344;2022-12-07T09:28:55;11.77;;;6.93;;
37971;SDS011;23794;48.234;8.344;2022-12-07T09:31:22;12.40;;;7.50;;
37971;SDS011;23794;48.234;8.344;2022-12-07T09:33:58;10.63;;;6.20;;
37971;SDS011;23794;48.234;8.344;2022-12-07T09:36:27;14.23;;;7.13;;
37971;SDS011;23794;48.234;8.344;2022-12-07T09:38:54;10.15;;;6.32;;
37971;SDS011;23794;48.234;8.344;2022-12-07T09:41:22;10.48;;;6.32;;
37971;SDS011;23794;48.234;8.344;2022-12-07T09:43:50;6.15;;;4.18;;
37971;SDS011;23794;48.234;8.344;2022-12-07T09:46:19;6.18;;;4.38;;
37971;SDS011;23794;48.234;8.344;2022-12-07T09:48:47;7.47;;;4.20;;
37971;SDS011;23794;48.234;8.344;2022-12-07T09:51:17;4.85;;;3.67;;
37971;SDS011;23794;48.234;8.344;2022-12-07T09:53:53;5.15;;;3.40;;
37971;SDS011;23794;48.234;8.344;2022-12-07T09:56:22;7.47;;;3.53;;
37971;SDS011;23794;48.234;8.344;2022-12-07T09:58:51;5.32;;;3.67;;
37971;SDS011;23794;48.234;8.344;2022-12-07T10:01:29;4.72;;;3.30;;
37971;SDS011;23794;48.234;8.344;2022-12-07T10:06:27;4.97;;;3.42;;
37971;SDS011;23794;48.234;8.344;2022-12-07T10:08:54;5.20;;;3.45;;
37971;SDS011;23794;48.234;8.344;2022-12-07T10:11:21;4.00;;;2.92;;
37971;SDS011;23794;48.234;8.344;2022-12-07T10:13:49;6.40;;;2.85;;
37971;SDS011;23794;48.234;8.344;2022-12-07T10:24:41;4.35;;;2.38;;
37971;SDS011;23794;48.234;8.344;2022-12-07T10:27:25;3.50;;;2.17;;
37971;SDS011;23794;48.234;8.344;2022-12-07T10:29:55;4.05;;;2.72;;
37971;SDS011;23794;48.234;8.344;2022-12-07T10:32:30;3.20;;;1.90;;
37971;SDS011;23794;48.234;8.344;2022-12-07T10:37:46;3.20;;;2.45;;
37971;SDS011;23794;48.234;8.344;2022-12-07T10:40:55;3.88;;;2.53;;
37971;SDS011;23794;48.234;8.344;2022-12-07T10:59:53;3.22;;;2.00;;
37971;SDS011;23794;48.234;8.344;2022-12-07T11:02:38;2.65;;;1.80;;
37971;SDS011;23794;48.234;8.344;2022-12-07T11:24:04;1.95;;;1.45;;
37971;SDS011;23794;48.234;8.344;2022-12-07T11:26:44;2.70;;;1.52;;
37971;SDS011;23794;48.234;8.344;2022-12-07T11:32:49;2.97;;;1.95;;
37971;SDS011;23794;48.234;8.344;2022-12-07T11:37:51;2.35;;;1.95;;
37971;SDS011;23794;48.234;8.344;2022-12-07T11:46:00;4.55;;;2.80;;
37971;SDS011;23794;48.234;8.344;2022-12-07T11:48:50;3.92;;;1.90;;
37971;SDS011;23794;48.234;8.344;2022-12-07T11:51:24;3.38;;;2.33;;
37971;SDS011;23794;48.234;8.344;2022-12-07T11:53:59;3.65;;;2.08;;
37971;SDS011;23794;48.234;8.344;2022-12-07T11:56:29;2.90;;;2.33;;
37971;SDS011;23794;48.234;8.344;2022-12-07T11:59:08;5.72;;;2.60;;
37971;SDS011;23794;48.234;8.344;2022-12-07T12:07:14;3.22;;;2.22;;
37971;SDS011;23794;48.234;8.344;2022-12-07T12:10:06;3.75;;;2.15;;
37971;SDS011;23794;48.234;8.344;2022-12-07T12:16:01;3.80;;;2.10;;
37971;SDS011;23794;48.234;8.344;2022-12-07T12:21:14;3.20;;;2.30;;
37971;SDS011;23794;48.234;8.344;2022-12-07T12:26:20;2.58;;;1.98;;
37971;SDS011;23794;48.234;8.344;2022-12-07T12:31:38;3.42;;;2.42;;
37971;SDS011;23794;48.234;8.344;2022-12-07T12:36:56;5.03;;;3.33;;
37971;SDS011;23794;48.234;8.344;2022-12-07T12:39:23;3.70;;;2.53;;
37971;SDS011;23794;48.234;8.344;2022-12-07T12:55:11;3.45;;;2.45;;
37971;SDS011;23794;48.234;8.344;2022-12-07T12:57:35;3.67;;;2.58;;
37971;SDS011;23794;48.234;8.344;2022-12-07T13:02:49;4.30;;;2.67;;
37971;SDS011;23794;48.234;8.344;2022-12-07T13:05:20;2.72;;;1.88;;
37971;SDS011;23794;48.234;8.344;2022-12-07T13:18:14;4.50;;;2.28;;
37971;SDS011;23794;48.234;8.344;2022-12-07T13:20:49;3.63;;;2.60;;
37971;SDS011;23794;48.234;8.344;2022-12-07T13:23:18;2.90;;;2.13;;
37971;SDS011;23794;48.234;8.344;2022-12-07T13:33:59;5.57;;;2.13;;
37971;SDS011;23794;48.234;8.344;2022-12-07T13:36:31;5.20;;;2.78;;
37971;SDS011;23794;48.234;8.344;2022-12-07T13:41:41;4.15;;;2.55;;
37971;SDS011;23794;48.234;8.344;2022-12-07T13:44:09;2.72;;;2.13;;
37971;SDS011;23794;48.234;8.344;2022-12-07T13:46:55;4.50;;;2.35;;
37971;SDS011;23794;48.234;8.344;2022-12-07T13:49:25;3.63;;;2.10;;
37971;SDS011;23794;48.234;8.344;2022-12-07T13:51:53;2.83;;;1.85;;
37971;SDS011;23794;48.234;8.344;2022-12-07T13:54:21;3.08;;;2.20;;
37971;SDS011;23794;48.234;8.344;2022-12-07T13:56:49;3.42;;;1.90;;
37971;SDS011;23794;48.234;8.344;2022-12-07T13:59:22;3.00;;;1.83;;
37971;SDS011;23794;48.234;8.344;2022-12-07T14:01:52;2.67;;;1.67;;
37971;SDS011;23794;48.234;8.344;2022-12-07T14:04:41;2.60;;;1.50;;
37971;SDS011;23794;48.234;8.344;2022-12-07T14:07:20;2.17;;;1.63;;
37971;SDS011;23794;48.234;8.344;2022-12-07T14:09:58;2.72;;;1.85;;
37971;SDS011;23794;48.234;8.344;2022-12-07T14:12:28;1.48;;;1.02;;
37971;SDS011;23794;48.234;8.344;2022-12-07T14:14:57;2.05;;;1.38;;
37971;SDS011;23794;48.234;8.344;2022-12-07T14:17:26;1.85;;;1.33;;
37971;SDS011;23794;48.234;8.344;2022-12-07T14:19:59;2.35;;;1.50;;
37971;SDS011;23794;48.234;8.344;2022-12-07T14:25:44;2.13;;;1.45;;
37971;SDS011;23794;48.234;8.344;2022-12-07T14:30:26;2.20;;;1.60;;
37971;SDS011;23794;48.234;8.344;2022-12-07T14:33:02;2.22;;;1.58;;
37971;SDS011;23794;48.234;8.344;2022-12-07T14:35:31;2.13;;;1.55;;
37971;SDS011;23794;48.234;8.344;2022-12-07T14:37:59;2.88;;;1.40;;
37971;SDS011;23794;48.234;8.344;2022-12-07T14:40:27;3.42;;;1.65;;
37971;SDS011;23794;48.234;8.344;2022-12-07T14:43:02;2.40;;;1.67;;
37971;SDS011;23794;48.234;8.344;2022-12-07T14:45:32;2.85;;;1.75;;
37971;SDS011;23794;48.234;8.344;2022-12-07T14:48:02;2.58;;;1.92;;
37971;SDS011;23794;48.234;8.344;2022-12-07T14:50:51;2.47;;;1.73;;
37971;SDS011;23794;48.234;8.344;2022-12-07T14:53:41;3.10;;;1.95;;
37971;SDS011;23794;48.234;8.344;2022-12-07T14:56:18;2.65;;;1.58;;
37971;SDS011;23794;48.234;8.344;2022-12-07T14:58:45;3.28;;;2.42;;
37971;SDS011;23794;48.234;8.344;2022-12-07T15:01:14;3.53;;;1.98;;
37971;SDS011;23794;48.234;8.344;2022-12-07T15:03:41;2.78;;;1.52;;
37971;SDS011;23794;48.234;8.344;2022-12-07T15:06:10;2.33;;;1.60;;
37971;SDS011;23794;48.234;8.344;2022-12-07T15:08:39;3.20;;;1.70;;
37971;SDS011;23794;48.234;8.344;2022-12-07T15:11:06;4.25;;;2.30;;
37971;SDS011;23794;48.234;8.344;2022-12-07T15:13:32;2.78;;;1.90;;
37971;SDS011;23794;48.234;8.344;2022-12-07T15:16:19;4.22;;;2.38;;
37971;SDS011;23794;48.234;8.344;2022-12-07T15:18:47;4.07;;;2.65;;
37971;SDS011;23794;48.234;8.344;2022-12-07T15:21:34;3.10;;;2.17;;
37971;SDS011;23794;48.234;8.344;2022-12-07T15:24:00;2.95;;;1.95;;
37971;SDS011;23794;48.234;8.344;2022-12-07T15:26:27;3.38;;;1.75;;
37971;SDS011;23794;48.234;8.344;2022-12-07T15:28:54;4.05;;;2.38;;
37971;SDS011;23794;48.234;8.344;2022-12-07T15:31:21;3.28;;;2.40;;
37971;SDS011;23794;48.234;8.344;2022-12-07T15:34:08;4.07;;;2.00;;
37971;SDS011;23794;48.234;8.344;2022-12-07T15:36:34;3.92;;;2.20;;
37971;SDS011;23794;48.234;8.344;2022-12-07T15:39:02;4.55;;;2.17;;
37971;SDS011;23794;48.234;8.344;2022-12-07T15:41:45;3.17;;;2.45;;
37971;SDS011;23794;48.234;8.344;2022-12-07T15:44:12;3.72;;;2.35;;
37971;SDS011;23794;48.234;8.344;2022-12-07T15:46:58;3.90;;;2.50;;
37971;SDS011;23794;48.234;8.344;2022-12-07T15:49:26;5.00;;;3.53;;
37971;SDS011;23794;48.234;8.344;2022-12-07T15:51:53;5.40;;;3.20;;
37971;SDS011;23794;48.234;8.344;2022-12-07T15:54:24;5.38;;;3.97;;
37971;SDS011;23794;48.234;8.344;2022-12-07T15:56:53;6.55;;;4.75;;
37971;SDS011;23794;48.234;8.344;2022-12-07T15:59:20;7.13;;;4.72;;
37971;SDS011;23794;48.234;8.344;2022-12-07T16:01:48;5.82;;;3.80;;
37971;SDS011;23794;48.234;8.344;2022-12-07T16:04:14;5.70;;;3.67;;
37971;SDS011;23794;48.234;8.344;2022-12-07T16:06:41;7.30;;;5.13;;
37971;SDS011;23794;48.234;8.344;2022-12-07T16:09:08;6.88;;;4.03;;
37971;SDS011;23794;48.234;8.344;2022-12-07T16:11:35;8.35;;;3.97;;
37971;SDS011;23794;48.234;8.344;2022-12-07T16:14:02;8.32;;;4.95;;
37971;SDS011;23794;48.234;8.344;2022-12-07T16:16:28;8.02;;;4.63;;
37971;SDS011;23794;48.234;8.344;2022-12-07T16:18:55;6.78;;;4.40;;
37971;SDS011;23794;48.234;8.344;2022-12-07T16:21:22;7.50;;;4.75;;
37971;SDS011;23794;48.234;8.344;2022-12-07T16:23:51;6.53;;;4.43;;
37971;SDS011;23794;48.234;8.344;2022-12-07T16:26:19;9.93;;;5.28;;
37971;SDS011;23794;48.234;8.344;2022-12-07T16:28:50;8.20;;;4.38;;
37971;SDS011;23794;48.234;8.344;2022-12-07T16:31:19;13.27;;;7.13;;
37971;SDS011;23794;48.234;8.344;2022-12-07T16:33:47;11.35;;;6.13;;
37971;SDS011;23794;48.234;8.344;2022-12-07T16:36:15;10.60;;;6.35;;
37971;SDS011;23794;48.234;8.344;2022-12-07T16:39:03;8.60;;;5.57;;
37971;SDS011;23794;48.234;8.344;2022-12-07T16:41:30;9.18;;;6.03;;
37971;SDS011;23794;48.234;8.344;2022-12-07T16:44:04;10.15;;;6.40;;
37971;SDS011;23794;48.234;8.344;2022-12-07T16:46:33;11.82;;;6.93;;
37971;SDS011;23794;48.234;8.344;2022-12-07T16:49:02;11.90;;;7.13;;
37971;SDS011;23794;48.234;8.344;2022-12-07T16:51:30;10.73;;;6.60;;
37971;SDS011;23794;48.234;8.344;2022-12-07T16:53:57;10.75;;;6.85;;
37971;SDS011;23794;48.234;8.344;2022-12-07T16:56:25;11.90;;;7.43;;
37971;SDS011;23794;48.234;8.344;2022-12-07T16:58:53;11.57;;;6.60;;
37971;SDS011;23794;48.234;8.344;2022-12-07T17:01:21;8.68;;;5.35;;
37971;SDS011;23794;48.234;8.344;2022-12-07T17:03:49;10.18;;;5.68;;
37971;SDS011;23794;48.234;8.344;2022-12-07T17:06:23;8.13;;;6.15;;
37971;SDS011;23794;48.234;8.344;2022-12-07T17:08:51;10.05;;;5.82;;
37971;SDS011;23794;48.234;8.344;2022-12-07T17:11:22;10.57;;;5.78;;
37971;SDS011;23794;48.234;8.344;2022-12-07T17:13:52;10.93;;;6.65;;
37971;SDS011;23794;48.234;8.344;2022-12-07T17:16:37;11.50;;;6.00;;
37971;SDS011;23794;48.234;8.344;2022-12-07T17:19:09;10.43;;;6.68;;
37971;SDS011;23794;48.234;8.344;2022-12-07T17:21:37;9.32;;;6.18;;
37971;SDS011;23794;48.234;8.344;2022-12-07T17:24:05;9.73;;;6.40;;
37971;SDS011;23794;48.234;8.344;2022-12-07T17:26:33;10.82;;;6.22;;